createdAt,value
2018-05-31T00:00:01.183Z,99.90
2018-05-31T00:02:29.563Z,99.90
2018-05-31T00:04:58.643Z,99.90
2018-05-31T00:07:26.996Z,99.90
2018-05-31T00:09:55.331Z,99.90
2018-05-31T00:12:23.672Z,99.90
2018-05-31T00:14:52.004Z,99.90
2018-05-31T00:17:20.376Z,99.90
2018-05-31T00:19:48.744Z,99.90
2018-05-31T00:22:17.078Z,99.90
2018-05-31T00:24:45.465Z,99.90
2018-05-31T00:27:13.794Z,99.90
2018-05-31T00:29:42.141Z,99.90
2018-05-31T00:32:10.489Z,99.90
2018-05-31T00:34:38.865Z,99.90
2018-05-31T00:37:07.201Z,99.90
2018-05-31T00:39:35.547Z,99.90
2018-05-31T00:42:04.649Z,99.90
2018-05-31T00:44:33.772Z,99.90
2018-05-31T00:47:02.101Z,99.90
2018-05-31T00:49:30.469Z,99.90
2018-05-31T00:51:58.790Z,99.90
2018-05-31T00:54:27.149Z,99.90
2018-05-31T00:56:56.235Z,99.90
2018-05-31T00:59:24.588Z,99.90
2018-05-31T01:01:52.927Z,99.90
2018-05-31T01:04:22.037Z,99.90
2018-05-31T01:06:50.351Z,99.90
2018-05-31T01:09:18.711Z,99.90
2018-05-31T01:11:47.035Z,99.90
2018-05-31T01:14:16.160Z,99.90
2018-05-31T01:16:44.484Z,99.90
2018-05-31T01:19:12.857Z,99.90
2018-05-31T01:21:41.948Z,99.90
2018-05-31T01:24:10.287Z,99.90
2018-05-31T01:26:38.618Z,99.90
2018-05-31T01:29:06.952Z,99.90
2018-05-31T01:31:35.310Z,99.90
2018-05-31T01:34:04.387Z,99.90
2018-05-31T01:36:33.512Z,99.90
2018-05-31T01:39:01.861Z,99.90
2018-05-31T01:41:30.992Z,99.90
2018-05-31T01:43:59.338Z,99.90
2018-05-31T01:46:28.473Z,99.90
2018-05-31T01:48:56.812Z,99.90
2018-05-31T01:51:25.951Z,99.90
2018-05-31T01:53:54.274Z,99.90
2018-05-31T01:56:22.613Z,99.90
2018-05-31T01:58:50.947Z,99.90
2018-05-31T02:01:20.072Z,99.90
2018-05-31T02:03:48.387Z,99.90
2018-05-31T02:06:17.504Z,99.90
2018-05-31T02:08:45.825Z,99.90
2018-05-31T02:11:14.184Z,99.90
2018-05-31T02:13:42.666Z,99.90
2018-05-31T02:16:11.772Z,99.90
2018-05-31T02:18:40.200Z,99.90
2018-05-31T02:21:08.531Z,99.90
2018-05-31T02:23:36.881Z,99.90
2018-05-31T02:26:06.047Z,99.90
2018-05-31T02:28:35.176Z,99.90
2018-05-31T02:31:04.348Z,99.90
2018-05-31T02:33:32.721Z,99.90
2018-05-31T02:36:01.149Z,99.90
2018-05-31T02:38:29.516Z,99.90
2018-05-31T02:40:58.612Z,99.90
2018-05-31T02:43:26.987Z,99.90
2018-05-31T02:45:55.301Z,99.90
2018-05-31T02:48:23.652Z,99.90
2018-05-31T02:50:52.739Z,99.90
2018-05-31T02:53:21.864Z,99.90
2018-05-31T02:55:50.193Z,99.90
2018-05-31T02:58:18.727Z,99.90
2018-05-31T03:00:47.084Z,99.90
2018-05-31T03:03:15.548Z,99.90
2018-05-31T03:05:43.876Z,99.90
2018-05-31T03:08:12.221Z,99.90
2018-05-31T03:10:40.632Z,99.90
2018-05-31T03:13:08.972Z,99.90
2018-05-31T03:15:38.143Z,99.90
2018-05-31T03:18:06.492Z,99.90
2018-05-31T03:20:34.895Z,99.90
2018-05-31T03:23:03.494Z,99.90
2018-05-31T03:25:31.854Z,99.90
2018-05-31T03:28:00.176Z,99.90
2018-05-31T03:30:29.291Z,99.90
2018-05-31T03:32:57.627Z,99.90
2018-05-31T03:35:26.785Z,99.90
2018-05-31T03:37:55.110Z,99.90
2018-05-31T03:40:24.356Z,99.90
2018-05-31T03:42:52.729Z,99.90
2018-05-31T03:45:21.101Z,99.90
2018-05-31T03:47:49.456Z,99.90
2018-05-31T03:50:18.732Z,99.90
2018-05-31T03:52:47.109Z,99.90
2018-05-31T03:58:15.619Z,99.90
2018-05-31T04:00:44.008Z,99.90
2018-05-31T04:03:12.371Z,99.90
2018-05-31T04:05:40.750Z,99.90
2018-05-31T04:08:09.097Z,99.90
2018-05-31T04:10:37.480Z,99.90
2018-05-31T04:13:05.864Z,99.90
2018-05-31T04:15:34.173Z,99.90
2018-05-31T04:18:02.514Z,99.90
2018-05-31T04:20:30.875Z,99.90
2018-05-31T04:22:59.248Z,99.90
2018-05-31T04:25:27.581Z,99.90
2018-05-31T04:27:55.957Z,99.90
2018-05-31T04:30:24.311Z,99.90
2018-05-31T04:32:52.681Z,99.90
2018-05-31T04:35:21.033Z,99.90
2018-05-31T04:37:49.390Z,99.90
2018-05-31T04:40:18.488Z,99.90
2018-05-31T04:42:46.847Z,99.90
2018-05-31T04:45:15.186Z,99.90
2018-05-31T04:47:43.552Z,99.90
2018-05-31T04:50:11.891Z,99.90
2018-05-31T04:52:40.272Z,99.90
2018-05-31T04:55:08.624Z,99.90
2018-05-31T04:57:36.997Z,99.90
2018-05-31T05:00:05.361Z,99.90
2018-05-31T05:02:33.861Z,99.90
2018-05-31T05:05:02.212Z,99.90
2018-05-31T05:07:30.584Z,99.90
2018-05-31T05:09:58.921Z,99.90
2018-05-31T05:12:28.040Z,99.90
2018-05-31T05:14:56.380Z,99.90
2018-05-31T05:17:25.503Z,99.90
2018-05-31T05:19:53.888Z,99.90
2018-05-31T05:22:22.220Z,99.90
2018-05-31T05:24:50.590Z,99.90
2018-05-31T05:27:18.945Z,99.90
2018-05-31T05:29:47.297Z,99.90
2018-05-31T05:32:15.670Z,99.90
2018-05-31T05:34:44.812Z,99.90
2018-05-31T05:37:13.144Z,99.90
2018-05-31T05:39:41.516Z,99.90
2018-05-31T05:42:09.870Z,99.90
2018-05-31T05:44:38.266Z,99.90
2018-05-31T05:47:07.392Z,99.90
2018-05-31T05:49:35.772Z,99.90
2018-05-31T05:52:04.192Z,99.90
2018-05-31T05:54:32.588Z,99.90
2018-05-31T05:57:00.932Z,99.90
2018-05-31T05:59:29.315Z,99.90
2018-05-31T06:01:57.710Z,99.90
2018-05-31T06:04:26.079Z,99.90
2018-05-31T06:06:54.445Z,99.90
2018-05-31T06:09:22.775Z,99.90
2018-05-31T06:11:51.137Z,99.90
2018-05-31T06:14:19.455Z,99.90
2018-05-31T06:16:47.819Z,99.90
2018-05-31T06:19:16.209Z,99.90
2018-05-31T06:21:45.337Z,99.90
2018-05-31T06:24:13.691Z,99.90
2018-05-31T06:26:42.803Z,99.90
2018-05-31T06:29:11.155Z,99.90
2018-05-31T06:31:39.496Z,99.90
2018-05-31T06:34:07.849Z,99.90
2018-05-31T06:36:36.213Z,99.90
2018-05-31T06:39:04.590Z,99.90
2018-05-31T06:41:33.736Z,99.90
2018-05-31T06:44:02.056Z,99.90
2018-05-31T06:46:31.160Z,99.90
2018-05-31T06:48:59.523Z,99.90
2018-05-31T06:51:27.914Z,99.90
2018-05-31T06:53:56.283Z,99.90
2018-05-31T06:56:24.639Z,99.90
2018-05-31T06:58:52.992Z,99.90
2018-05-31T07:01:21.351Z,99.90
2018-05-31T07:03:49.674Z,99.90
2018-05-31T07:06:18.029Z,99.90
2018-05-31T07:08:46.362Z,99.90
2018-05-31T07:11:14.749Z,99.90
2018-05-31T07:13:43.847Z,99.90
2018-05-31T07:16:12.931Z,99.90
2018-05-31T07:18:42.043Z,99.90
2018-05-31T07:21:10.371Z,99.90
2018-05-31T07:23:39.509Z,99.90
2018-05-31T07:26:08.586Z,99.90
2018-05-31T07:28:36.944Z,99.90
2018-05-31T07:31:05.268Z,99.90
2018-05-31T07:33:33.747Z,99.90
2018-05-31T07:36:02.832Z,99.90
2018-05-31T07:38:31.942Z,99.90
2018-05-31T07:41:01.019Z,99.90
2018-05-31T07:43:29.369Z,99.90
2018-05-31T07:45:57.684Z,99.90
2018-05-31T07:48:26.798Z,99.90
2018-05-31T07:50:55.164Z,99.90
2018-05-31T07:53:24.292Z,99.90
2018-05-31T07:55:52.597Z,99.90
2018-05-31T07:58:21.031Z,99.90
2018-05-31T08:00:49.473Z,99.90
2018-05-31T08:03:18.014Z,99.90
2018-05-31T08:05:46.334Z,99.90
2018-05-31T08:08:15.455Z,99.90
2018-05-31T08:10:43.820Z,99.90
2018-05-31T08:13:12.186Z,99.90
2018-05-31T08:15:40.551Z,99.90
2018-05-31T08:18:09.860Z,99.90
2018-05-31T08:20:38.262Z,99.90
2018-05-31T08:23:07.341Z,99.90
2018-05-31T08:25:35.697Z,99.90
2018-05-31T08:28:04.013Z,99.90
2018-05-31T08:30:33.256Z,99.90
2018-05-31T08:33:01.588Z,99.90
2018-05-31T08:35:30.689Z,99.90
2018-05-31T08:37:59.785Z,99.90
2018-05-31T08:40:28.903Z,99.90
2018-05-31T08:42:57.235Z,99.90
2018-05-31T08:45:25.579Z,99.90
2018-05-31T08:47:53.889Z,99.90
2018-05-31T08:50:22.764Z,99.90
2018-05-31T08:52:51.136Z,99.90
2018-05-31T08:55:19.624Z,99.90
2018-05-31T08:57:47.980Z,99.90
2018-05-31T09:00:16.363Z,99.90
2018-05-31T09:02:44.700Z,99.90
2018-05-31T09:05:13.839Z,99.90
2018-05-31T09:07:42.190Z,99.90
2018-05-31T09:10:10.529Z,99.90
2018-05-31T09:12:38.876Z,99.90
2018-05-31T09:15:07.235Z,99.90
2018-05-31T09:17:35.598Z,99.90
2018-05-31T09:20:04.757Z,99.90
2018-05-31T09:22:33.092Z,99.90
2018-05-31T09:25:01.431Z,99.90
2018-05-31T09:27:30.559Z,99.90
2018-05-31T09:29:58.872Z,99.90
2018-05-31T09:32:27.211Z,99.90
2018-05-31T09:34:55.551Z,99.90
2018-05-31T09:37:24.680Z,99.90
2018-05-31T09:39:53.757Z,99.90
2018-05-31T09:42:22.103Z,99.90
2018-05-31T09:44:50.457Z,99.90
2018-05-31T09:47:18.806Z,99.90
2018-05-31T09:49:47.169Z,99.90
2018-05-31T09:52:15.552Z,99.90
2018-05-31T09:54:44.684Z,99.90
2018-05-31T09:57:13.122Z,99.90
2018-05-31T09:59:41.452Z,99.90
2018-05-31T10:02:09.812Z,99.90
2018-05-31T10:04:38.134Z,99.90
2018-05-31T10:07:06.500Z,99.90
2018-05-31T10:09:34.820Z,99.90
2018-05-31T10:12:03.928Z,99.90
2018-05-31T10:14:33.060Z,99.90
2018-05-31T10:17:01.420Z,99.90
2018-05-31T10:19:29.778Z,99.90
2018-05-31T10:21:58.151Z,99.90
2018-05-31T10:24:27.257Z,99.90
2018-05-31T10:26:56.364Z,99.90
2018-05-31T10:29:24.697Z,99.90
2018-05-31T10:31:53.033Z,99.90
2018-05-31T10:34:21.379Z,99.90
2018-05-31T10:36:50.458Z,99.90
2018-05-31T10:39:18.792Z,99.90
2018-05-31T10:41:47.116Z,99.90
2018-05-31T10:44:15.464Z,99.90
2018-05-31T10:46:43.790Z,99.90
2018-05-31T10:49:12.143Z,99.90
2018-05-31T10:51:40.468Z,99.90
2018-05-31T10:54:08.816Z,99.90
2018-05-31T10:56:37.336Z,99.90
2018-05-31T10:59:05.679Z,99.90
2018-05-31T11:01:34.890Z,99.90
2018-05-31T11:04:03.985Z,99.90
2018-05-31T11:06:33.124Z,99.90
2018-05-31T11:09:01.484Z,99.90
2018-05-31T11:11:29.951Z,99.90
2018-05-31T11:13:58.287Z,99.90
2018-05-31T11:16:26.615Z,99.90
2018-05-31T11:18:54.927Z,99.70
2018-05-31T11:21:23.279Z,99.10
2018-05-31T11:23:51.602Z,99.80
2018-05-31T11:26:20.749Z,98.80
2018-05-31T11:28:49.073Z,98.70
2018-05-31T11:31:17.421Z,98.90
2018-05-31T11:33:45.736Z,97.50
2018-05-31T11:36:14.092Z,97.80
2018-05-31T11:38:42.424Z,98.60
2018-05-31T11:41:11.520Z,99.80
2018-05-31T11:43:39.880Z,99.80
2018-05-31T11:46:08.955Z,97.40
2018-05-31T11:48:37.328Z,97.10
2018-05-31T11:51:05.670Z,97.30
2018-05-31T11:53:34.011Z,97.40
2018-05-31T11:56:03.094Z,97.10
2018-05-31T11:58:31.442Z,97.20
2018-05-31T12:00:59.775Z,95.00
2018-05-31T12:03:28.869Z,96.70
2018-05-31T12:05:57.954Z,94.50
2018-05-31T12:08:27.138Z,94.70
2018-05-31T12:10:55.401Z,94.60
2018-05-31T12:13:23.747Z,94.20
2018-05-31T12:15:52.063Z,95.30
2018-05-31T12:18:21.925Z,97.60
2018-05-31T12:20:50.273Z,97.60
2018-05-31T12:23:19.409Z,95.10
2018-05-31T12:25:47.934Z,95.10
2018-05-31T12:28:16.276Z,93.80
2018-05-31T12:30:44.587Z,93.00
2018-05-31T12:33:12.895Z,93.40
2018-05-31T12:35:42.008Z,93.50
2018-05-31T12:38:10.354Z,93.50
2018-05-31T12:40:38.692Z,92.00
2018-05-31T12:43:07.888Z,93.60
2018-05-31T12:45:36.274Z,95.10
2018-05-31T12:48:04.687Z,95.00
2018-05-31T12:50:33.040Z,93.70
2018-05-31T12:53:01.347Z,91.10
2018-05-31T12:55:29.684Z,95.80
2018-05-31T12:57:58.008Z,92.50
2018-05-31T13:00:27.126Z,91.30
2018-05-31T13:02:55.488Z,91.30
2018-05-31T13:05:24.583Z,90.60
2018-05-31T13:07:52.939Z,90.60
2018-05-31T13:10:21.286Z,91.70
2018-05-31T13:12:49.644Z,92.30
2018-05-31T13:15:18.016Z,91.10
2018-05-31T13:17:46.354Z,88.80
2018-05-31T13:20:14.678Z,90.40
2018-05-31T13:22:43.024Z,93.40
2018-05-31T13:25:11.352Z,91.70
2018-05-31T13:27:39.712Z,92.60
2018-05-31T13:30:08.028Z,92.60
2018-05-31T13:32:36.368Z,93.30
2018-05-31T13:35:04.694Z,92.80
2018-05-31T13:37:33.040Z,91.80
2018-05-31T13:40:01.352Z,91.90
2018-05-31T13:42:29.724Z,92.50
2018-05-31T13:44:58.041Z,91.80
2018-05-31T13:47:27.139Z,90.40
2018-05-31T13:49:55.474Z,90.40
2018-05-31T13:52:23.823Z,92.00
2018-05-31T13:54:52.144Z,90.80
2018-05-31T13:57:20.513Z,91.10
2018-05-31T13:59:48.857Z,91.00
2018-05-31T14:02:17.220Z,91.70
2018-05-31T14:04:45.589Z,92.70
2018-05-31T14:07:13.976Z,92.50
2018-05-31T14:09:42.325Z,91.80
2018-05-31T14:12:10.655Z,92.20
2018-05-31T14:14:38.997Z,92.10
2018-05-31T14:17:07.344Z,91.10
2018-05-31T14:19:35.716Z,91.20
2018-05-31T14:22:04.043Z,90.10
2018-05-31T14:24:32.386Z,90.90
2018-05-31T14:27:00.749Z,91.10
2018-05-31T14:29:29.093Z,92.30
2018-05-31T14:31:57.440Z,89.20
2018-05-31T14:34:26.576Z,89.20
2018-05-31T14:36:54.887Z,89.20
2018-05-31T14:39:23.251Z,91.30
2018-05-31T14:44:53.235Z,91.30
2018-05-31T14:47:22.352Z,90.90
2018-05-31T14:49:50.694Z,90.90
2018-05-31T14:52:19.799Z,90.10
2018-05-31T14:54:48.915Z,91.50
2018-05-31T14:57:17.229Z,91.50
2018-05-31T14:59:45.585Z,91.30
2018-05-31T15:02:13.906Z,90.50
2018-05-31T15:04:43.025Z,92.50
2018-05-31T15:07:12.163Z,92.60
2018-05-31T15:09:40.523Z,92.70
2018-05-31T15:12:08.892Z,92.70
2018-05-31T15:14:38.059Z,91.60
2018-05-31T15:17:07.164Z,92.70
2018-05-31T15:19:35.500Z,92.70
2018-05-31T15:22:03.885Z,92.90
2018-05-31T15:24:32.958Z,93.90
2018-05-31T15:27:01.326Z,93.60
2018-05-31T15:29:29.632Z,94.10
2018-05-31T15:31:57.983Z,93.50
2018-05-31T15:34:26.332Z,93.20
2018-05-31T15:36:55.460Z,93.30
2018-05-31T15:39:23.820Z,93.30
2018-05-31T15:41:52.932Z,94.40
2018-05-31T15:44:21.264Z,94.40
2018-05-31T15:46:49.625Z,94.80
2018-05-31T15:49:18.952Z,95.00
2018-05-31T15:51:47.318Z,94.90
2018-05-31T15:54:15.653Z,95.00
2018-05-31T15:56:44.025Z,95.40
2018-05-31T15:59:12.376Z,95.10
2018-05-31T16:01:41.568Z,94.80
2018-05-31T16:04:10.667Z,95.20
2018-05-31T16:06:39.784Z,94.70
2018-05-31T16:09:08.124Z,94.70
2018-05-31T16:11:36.443Z,95.20
2018-05-31T16:14:04.806Z,95.00
2018-05-31T16:16:33.889Z,95.10
2018-05-31T16:19:02.262Z,95.10
2018-05-31T16:21:30.598Z,95.10
2018-05-31T16:23:58.939Z,95.10
2018-05-31T16:26:28.072Z,96.00
2018-05-31T16:28:56.429Z,96.10
2018-05-31T16:31:24.757Z,96.30
2018-05-31T16:33:53.096Z,96.50
2018-05-31T16:36:21.425Z,96.30
2018-05-31T16:38:49.794Z,95.90
2018-05-31T16:41:18.127Z,96.50
2018-05-31T16:43:46.519Z,96.20
2018-05-31T16:46:14.865Z,95.40
2018-05-31T16:48:44.001Z,95.60
2018-05-31T16:51:12.334Z,95.60
2018-05-31T16:53:41.445Z,95.80
2018-05-31T16:56:09.808Z,95.80
2018-05-31T16:58:38.888Z,96.30
2018-05-31T17:01:07.231Z,96.30
2018-05-31T17:03:35.571Z,96.10
2018-05-31T17:06:03.907Z,96.20
2018-05-31T17:08:32.224Z,96.30
2018-05-31T17:11:01.336Z,96.40
2018-05-31T17:13:29.655Z,96.40
2018-05-31T17:15:58.003Z,97.20
2018-05-31T17:18:26.329Z,96.60
2018-05-31T17:20:54.723Z,96.30
2018-05-31T17:23:23.799Z,96.80
2018-05-31T17:28:52.461Z,96.90
2018-05-31T17:31:20.794Z,97.40
2018-05-31T17:33:49.120Z,98.10
2018-05-31T17:36:17.452Z,98.10
2018-05-31T17:38:45.785Z,98.70
2018-05-31T17:41:14.120Z,99.40
2018-05-31T17:43:42.488Z,99.90
2018-05-31T17:46:11.571Z,99.90
2018-05-31T17:48:39.911Z,99.90
2018-05-31T17:51:08.230Z,99.90
2018-05-31T17:53:36.579Z,99.90
2018-05-31T17:56:05.001Z,99.90
2018-05-31T17:58:34.130Z,99.90
2018-05-31T18:01:02.477Z,99.90
2018-05-31T18:03:31.586Z,99.90
2018-05-31T18:05:59.951Z,99.90
2018-05-31T18:08:29.151Z,99.90
2018-05-31T18:10:58.255Z,99.90
2018-05-31T18:13:27.367Z,99.90
2018-05-31T18:15:55.692Z,99.90
2018-05-31T18:18:24.057Z,99.90
2018-05-31T18:20:52.419Z,99.90
2018-05-31T18:23:20.751Z,99.90
2018-05-31T18:25:49.936Z,99.90
2018-05-31T18:28:18.500Z,99.90
2018-05-31T18:30:46.854Z,99.90
2018-05-31T18:33:15.193Z,99.90
2018-05-31T18:35:44.286Z,99.90
2018-05-31T18:38:13.419Z,99.90
2018-05-31T18:40:41.768Z,99.90
2018-05-31T18:43:10.853Z,99.90
2018-05-31T18:48:33.444Z,99.90
2018-05-31T18:51:01.784Z,99.90
2018-05-31T18:53:30.907Z,99.90
2018-05-31T18:56:00.004Z,99.90
2018-05-31T18:58:29.534Z,99.90
2018-05-31T19:00:58.058Z,99.90
2018-05-31T19:03:26.589Z,99.90
2018-05-31T19:05:55.135Z,99.90
2018-05-31T19:08:23.581Z,99.90
2018-05-31T19:10:52.099Z,99.90
2018-05-31T19:13:37.097Z,99.90
2018-05-31T19:16:06.584Z,99.90
2018-05-31T19:18:41.146Z,99.90
2018-05-31T19:21:10.192Z,99.90
2018-05-31T19:23:39.693Z,99.90
2018-05-31T19:26:08.319Z,99.90
2018-05-31T19:28:36.657Z,99.90
2018-05-31T19:31:11.602Z,99.90
2018-05-31T19:33:40.695Z,99.90
2018-05-31T19:36:14.943Z,99.90
2018-05-31T19:38:43.292Z,99.90
2018-05-31T19:41:12.404Z,99.90
2018-05-31T19:43:47.060Z,99.90
2018-05-31T19:46:15.391Z,99.90
2018-05-31T19:48:44.499Z,99.90
2018-05-31T19:51:12.859Z,99.90
2018-05-31T19:53:44.169Z,99.90
2018-05-31T19:56:12.565Z,99.90
2018-05-31T19:58:46.716Z,99.90
2018-05-31T20:01:21.552Z,99.90
2018-05-31T20:03:50.620Z,99.90
2018-05-31T20:06:18.947Z,99.90
2018-05-31T20:08:47.258Z,99.90
2018-05-31T20:11:15.595Z,99.90
2018-05-31T20:13:43.925Z,99.90
2018-05-31T20:16:13.039Z,99.90
2018-05-31T20:18:42.121Z,99.90
2018-05-31T20:21:10.472Z,99.90
2018-05-31T20:23:38.793Z,99.90
2018-05-31T20:26:07.895Z,99.90
2018-05-31T20:28:36.986Z,99.90
2018-05-31T20:31:06.062Z,99.90
2018-05-31T20:33:34.420Z,99.90
2018-05-31T20:36:02.732Z,99.90
2018-05-31T20:38:31.061Z,99.90
2018-05-31T20:40:59.387Z,99.90
2018-05-31T20:43:27.711Z,99.90
2018-05-31T20:45:56.028Z,99.90
2018-05-31T20:48:24.380Z,99.90
2018-05-31T20:53:31.627Z,99.90
2018-05-31T20:56:00.705Z,99.90
2018-05-31T20:58:29.048Z,99.90
2018-05-31T21:00:57.361Z,99.90
2018-05-31T21:03:25.692Z,99.90
2018-05-31T21:05:53.997Z,99.90
2018-05-31T21:08:22.353Z,99.90
2018-05-31T21:10:50.667Z,99.90
2018-05-31T21:13:19.000Z,99.90
2018-05-31T21:15:47.304Z,99.90
2018-05-31T21:18:15.656Z,99.90
2018-05-31T21:20:43.984Z,99.90
2018-05-31T21:23:12.295Z,99.90
2018-05-31T21:25:40.628Z,99.90
2018-05-31T21:28:08.975Z,99.90
2018-05-31T21:30:37.334Z,99.90
2018-05-31T21:33:05.665Z,99.90
2018-05-31T21:35:34.071Z,99.90
2018-05-31T21:38:02.339Z,99.90
2018-05-31T21:40:30.672Z,99.90
2018-05-31T21:42:58.976Z,99.90
2018-05-31T21:45:27.307Z,99.90
2018-05-31T21:47:55.627Z,99.90
2018-05-31T21:50:23.964Z,99.90
2018-05-31T21:52:52.285Z,99.90
2018-05-31T21:55:20.613Z,99.90
2018-05-31T21:57:48.924Z,99.90
2018-05-31T22:00:41.608Z,99.90
2018-05-31T22:03:09.921Z,99.90
2018-05-31T22:05:38.315Z,99.90
2018-05-31T22:08:07.353Z,99.90
2018-05-31T22:10:35.680Z,99.90
2018-05-31T22:13:04.021Z,99.90
2018-05-31T22:15:32.324Z,99.90
2018-05-31T22:18:00.668Z,99.90
2018-05-31T22:20:28.977Z,99.90
2018-05-31T22:22:57.349Z,99.90
2018-05-31T22:25:26.419Z,99.90
2018-05-31T22:27:54.750Z,99.90
2018-05-31T22:30:23.059Z,99.90
2018-05-31T22:32:51.397Z,99.90
2018-05-31T22:35:19.713Z,99.90
2018-05-31T22:37:48.839Z,99.90
2018-05-31T22:40:17.907Z,99.90
2018-05-31T22:42:46.239Z,99.90
2018-05-31T22:45:14.556Z,99.90
2018-05-31T22:47:42.890Z,99.90
2018-05-31T22:50:11.203Z,99.90
2018-05-31T22:52:39.527Z,99.90
2018-05-31T22:55:08.605Z,99.90
2018-05-31T22:57:36.955Z,99.90
2018-05-31T23:00:05.260Z,99.90
2018-05-31T23:02:33.404Z,99.90
2018-05-31T23:05:01.727Z,99.90
2018-05-31T23:07:30.079Z,99.90
2018-05-31T23:09:58.395Z,99.90
2018-05-31T23:12:26.720Z,99.90
2018-05-31T23:14:55.820Z,99.90
2018-05-31T23:17:24.143Z,99.90
2018-05-31T23:19:53.237Z,99.90
2018-05-31T23:22:22.332Z,99.90
2018-05-31T23:24:50.687Z,99.90
2018-05-31T23:27:19.005Z,99.90
2018-05-31T23:29:47.337Z,99.90
2018-05-31T23:32:15.648Z,99.90
2018-05-31T23:34:44.751Z,99.90
2018-05-31T23:37:13.072Z,99.90
2018-05-31T23:39:41.432Z,99.90
2018-05-31T23:42:09.739Z,99.90
2018-05-31T23:44:38.091Z,99.90
2018-05-31T23:47:06.415Z,99.90
2018-05-31T23:49:34.750Z,99.90
2018-05-31T23:52:03.092Z,99.90
2018-05-31T23:54:32.162Z,99.90
2018-05-31T23:57:00.548Z,99.90
2018-05-31T23:59:29.623Z,99.90
